Time;durP1;ratioP1;P1;durP2;ratioP2;P2;SDS_P1;SDS_P2;PMS_P1;PMS_P2;Temp;Humidity;BMP_temperature;BMP_pressure;BME280_temperature;BME280_humidity;BME280_pressure;Samples;Min_cycle;Max_cycle;Signal;HPM_P1;HPM_P2
2023/08/02 00:01:13;;;;;;;4.43;1.30;;;;;;;;;;5055042;28;20211;-86
2023/08/02 00:03:41;;;;;;;6.25;1.70;;;;;;;;;;5054677;28;20215;-87
2023/08/02 00:06:08;;;;;;;6.43;1.90;;;;;;;;;;5054861;28;20219;-87
2023/08/02 00:08:35;;;;;;;4.00;1.70;;;;;;;;;;5054356;28;20314;-87
2023/08/02 00:11:03;;;;;;;8.52;2.75;;;;;;;;;;5054502;28;20243;-87
2023/08/02 00:13:32;;;;;;;6.22;2.20;;;;;;;;;;5054374;28;20188;-87
2023/08/02 00:15:59;;;;;;;5.90;1.83;;;;;;;;;;5054591;28;20747;-86
2023/08/02 00:18:26;;;;;;;7.97;2.67;;;;;;;;;;5054674;28;20249;-88
2023/08/02 00:20:54;;;;;;;8.65;3.10;;;;;;;;;;5054786;28;20196;-87
2023/08/02 00:23:21;;;;;;;9.07;3.15;;;;;;;;;;5054700;28;20227;-88
2023/08/02 00:25:48;;;;;;;12.20;3.63;;;;;;;;;;5054200;28;20195;-88
2023/08/02 00:28:15;;;;;;;13.15;3.70;;;;;;;;;;5053490;28;20334;-88
2023/08/02 00:30:47;;;;;;;12.80;3.88;;;;;;;;;;5054818;28;20286;-87
2023/08/02 00:33:14;;;;;;;14.35;4.22;;;;;;;;;;5054639;28;20660;-88
2023/08/02 00:35:44;;;;;;;16.98;4.28;;;;;;;;;;5053975;28;20231;-88
2023/08/02 00:38:12;;;;;;;15.70;4.75;;;;;;;;;;5054834;28;20198;-87
2023/08/02 00:40:39;;;;;;;15.93;4.60;;;;;;;;;;5054541;28;21402;-88
2023/08/02 00:43:07;;;;;;;18.13;5.20;;;;;;;;;;5054260;28;20271;-89
2023/08/02 00:45:34;;;;;;;17.80;5.25;;;;;;;;;;5054334;28;20215;-88
2023/08/02 00:48:03;;;;;;;19.75;5.40;;;;;;;;;;5054227;28;20210;-88
2023/08/02 00:50:32;;;;;;;19.00;6.00;;;;;;;;;;5054528;28;20187;-88
2023/08/02 00:52:59;;;;;;;22.33;5.80;;;;;;;;;;5054321;28;20200;-90
2023/08/02 00:55:26;;;;;;;24.35;6.15;;;;;;;;;;5054578;28;20299;-89
2023/08/02 00:57:53;;;;;;;15.68;5.38;;;;;;;;;;5054189;28;20255;-89
2023/08/02 01:00:21;;;;;;;24.38;6.22;;;;;;;;;;5054114;28;20303;-86
2023/08/02 01:02:48;;;;;;;17.77;5.18;;;;;;;;;;5053976;28;20195;-88
2023/08/02 01:05:17;;;;;;;19.73;5.05;;;;;;;;;;5054524;28;20227;-89
2023/08/02 01:07:47;;;;;;;19.92;5.70;;;;;;;;;;5054027;28;20306;-87
2023/08/02 01:10:17;;;;;;;25.55;5.93;;;;;;;;;;5052805;28;20319;-86
2023/08/02 01:12:46;;;;;;;21.55;5.72;;;;;;;;;;5033669;28;20266;-88
2023/08/02 01:15:15;;;;;;;21.55;6.15;;;;;;;;;;5033952;28;20200;-87
2023/08/02 01:17:43;;;;;;;12.77;4.90;;;;;;;;;;5033880;28;20673;-87
2023/08/02 01:20:12;;;;;;;15.52;5.03;;;;;;;;;;5035008;28;20212;-88
2023/08/02 01:22:39;;;;;;;19.02;4.35;;;;;;;;;;5034129;28;20256;-88
2023/08/02 01:25:07;;;;;;;17.27;4.47;;;;;;;;;;5033602;28;20219;-88
2023/08/02 01:27:38;;;;;;;8.55;3.60;;;;;;;;;;5034889;28;20740;-87
2023/08/02 01:30:08;;;;;;;13.10;3.75;;;;;;;;;;5033669;28;20232;-88
2023/08/02 01:32:35;;;;;;;12.02;3.53;;;;;;;;;;5035217;28;20189;-88
2023/08/02 01:35:03;;;;;;;14.25;3.83;;;;;;;;;;5033893;28;20192;-88
2023/08/02 01:37:34;;;;;;;10.35;4.00;;;;;;;;;;5034463;28;20697;-89
2023/08/02 01:40:03;;;;;;;9.45;3.08;;;;;;;;;;5033743;28;20196;-89
2023/08/02 01:42:31;;;;;;;8.50;3.20;;;;;;;;;;5033800;28;20614;-89
2023/08/02 01:44:58;;;;;;;12.32;3.40;;;;;;;;;;5034033;28;20188;-88
2023/08/02 01:47:25;;;;;;;10.05;2.80;;;;;;;;;;5033672;28;20223;-89
2023/08/02 01:49:52;;;;;;;7.85;2.83;;;;;;;;;;5033605;28;20247;-89
2023/08/02 01:52:19;;;;;;;7.40;3.00;;;;;;;;;;5033622;28;20231;-89
2023/08/02 01:54:48;;;;;;;6.93;2.80;;;;;;;;;;5033279;28;20287;-89
2023/08/02 01:57:15;;;;;;;10.18;2.60;;;;;;;;;;5033694;28;20301;-88
2023/08/02 01:59:42;;;;;;;7.28;2.40;;;;;;;;;;5033676;28;20220;-89
2023/08/02 02:02:10;;;;;;;9.10;2.60;;;;;;;;;;5033947;28;20626;-89
2023/08/02 02:04:37;;;;;;;5.93;2.15;;;;;;;;;;5033610;28;20248;-88
2023/08/02 02:07:04;;;;;;;8.23;2.10;;;;;;;;;;5033516;28;20232;-89
2023/08/02 02:09:32;;;;;;;6.15;2.05;;;;;;;;;;5032879;28;20223;-89
2023/08/02 02:12:00;;;;;;;5.03;1.95;;;;;;;;;;5033968;28;20238;-88
2023/08/02 02:14:28;;;;;;;5.35;1.83;;;;;;;;;;5035626;28;20250;-88
2023/08/02 02:16:55;;;;;;;3.97;1.90;;;;;;;;;;5045111;28;20275;-88
2023/08/02 02:19:22;;;;;;;7.85;1.92;;;;;;;;;;5053583;28;20321;-88
2023/08/02 02:21:49;;;;;;;5.63;1.77;;;;;;;;;;5053190;28;20279;-87
2023/08/02 02:24:17;;;;;;;4.78;1.65;;;;;;;;;;5053277;28;20279;-89
2023/08/02 02:26:44;;;;;;;4.15;1.60;;;;;;;;;;5053099;28;20703;-88
2023/08/02 02:29:13;;;;;;;4.03;1.60;;;;;;;;;;5053249;28;20274;-89
2023/08/02 02:31:40;;;;;;;3.15;1.20;;;;;;;;;;5053426;28;20246;-89
2023/08/02 02:34:07;;;;;;;6.55;1.50;;;;;;;;;;5053491;28;20230;-89
2023/08/02 02:36:34;;;;;;;3.67;1.23;;;;;;;;;;5053254;28;20230;-88
2023/08/02 02:39:02;;;;;;;3.58;1.20;;;;;;;;;;5052765;28;20188;-89
2023/08/02 02:41:29;;;;;;;3.38;1.08;;;;;;;;;;5053014;28;20192;-90
2023/08/02 02:43:56;;;;;;;3.53;1.10;;;;;;;;;;5052843;28;20738;-87
2023/08/02 02:46:25;;;;;;;1.58;1.02;;;;;;;;;;5053325;28;20238;-89
2023/08/02 02:48:53;;;;;;;3.85;1.25;;;;;;;;;;5052425;28;20192;-88
2023/08/02 02:51:20;;;;;;;2.88;0.90;;;;;;;;;;5055337;28;20231;-89
2023/08/02 02:53:48;;;;;;;3.90;0.80;;;;;;;;;;5056962;28;20664;-88
2023/08/02 02:56:15;;;;;;;2.80;0.90;;;;;;;;;;5056810;28;20224;-89
2023/08/02 02:58:42;;;;;;;2.85;0.88;;;;;;;;;;5056745;28;20731;-88
2023/08/02 03:01:10;;;;;;;1.15;0.60;;;;;;;;;;5056924;28;20274;-88
2023/08/02 03:03:39;;;;;;;1.27;0.68;;;;;;;;;;5056509;28;20257;-89
2023/08/02 03:06:07;;;;;;;1.80;0.60;;;;;;;;;;5061394;28;20219;-87
2023/08/02 03:08:35;;;;;;;2.88;0.80;;;;;;;;;;5056697;28;20252;-88
2023/08/02 03:11:02;;;;;;;1.20;0.80;;;;;;;;;;5056966;28;20589;-89
2023/08/02 03:13:29;;;;;;;1.17;0.35;;;;;;;;;;5056762;28;20303;-89
2023/08/02 03:15:56;;;;;;;2.00;0.70;;;;;;;;;;5056675;28;20607;-89
2023/08/02 03:18:24;;;;;;;1.10;0.50;;;;;;;;;;5056488;28;20231;-89
2023/08/02 03:20:52;;;;;;;1.38;0.70;;;;;;;;;;5056361;28;20279;-90
2023/08/02 03:23:20;;;;;;;1.10;0.50;;;;;;;;;;5056343;28;20200;-90
2023/08/02 03:25:47;;;;;;;1.23;0.47;;;;;;;;;;5059217;28;20230;-90
2023/08/02 03:28:14;;;;;;;2.47;0.65;;;;;;;;;;5055848;28;20668;-89
2023/08/02 03:30:41;;;;;;;1.00;0.60;;;;;;;;;;5056612;28;20287;-89
2023/08/02 03:33:08;;;;;;;0.90;0.40;;;;;;;;;;5055875;28;20203;-89
2023/08/02 03:35:35;;;;;;;1.90;0.60;;;;;;;;;;5055955;28;20226;-89
2023/08/02 03:38:04;;;;;;;1.88;0.50;;;;;;;;;;5056021;28;20238;-89
2023/08/02 03:40:32;;;;;;;1.80;0.55;;;;;;;;;;5056385;28;20714;-90
2023/08/02 03:42:59;;;;;;;0.90;0.50;;;;;;;;;;5056026;28;20222;-92
2023/08/02 03:45:27;;;;;;;1.48;0.60;;;;;;;;;;5056866;28;20231;-90
2023/08/02 03:47:55;;;;;;;1.58;0.40;;;;;;;;;;5055713;28;20683;-90
2023/08/02 03:50:22;;;;;;;1.50;0.40;;;;;;;;;;5055946;28;20237;-89
2023/08/02 03:52:50;;;;;;;0.25;0.20;;;;;;;;;;5056012;28;20192;-89
2023/08/02 03:55:19;;;;;;;2.00;0.50;;;;;;;;;;5055872;28;20223;-89
2023/08/02 03:57:46;;;;;;;1.27;0.30;;;;;;;;;;5055631;28;20226;-89
2023/08/02 04:00:14;;;;;;;0.98;0.38;;;;;;;;;;5055804;28;20231;-89
2023/08/02 04:02:41;;;;;;;0.55;0.40;;;;;;;;;;5055232;28;20274;-90
2023/08/02 04:05:08;;;;;;;1.25;0.40;;;;;;;;;;5055546;28;20203;-90
2023/08/02 04:07:36;;;;;;;1.02;0.30;;;;;;;;;;5055983;28;20701;-90
2023/08/02 04:10:03;;;;;;;4.28;0.60;;;;;;;;;;5055991;28;20269;-91
2023/08/02 04:12:32;;;;;;;1.80;0.40;;;;;;;;;;5055340;28;20192;-90
2023/08/02 04:14:59;;;;;;;1.40;0.40;;;;;;;;;;5055363;28;20278;-89
2023/08/02 04:17:26;;;;;;;1.38;0.40;;;;;;;;;;5055174;28;20660;-90
2023/08/02 04:19:54;;;;;;;0.60;0.30;;;;;;;;;;5055136;28;20222;-89
2023/08/02 04:22:21;;;;;;;1.35;0.30;;;;;;;;;;5055493;28;20227;-90
2023/08/02 04:24:48;;;;;;;2.95;0.40;;;;;;;;;;5055100;28;20216;-91
2023/08/02 04:27:16;;;;;;;0.57;0.25;;;;;;;;;;5055228;28;20693;-90
2023/08/02 04:29:44;;;;;;;0.98;0.30;;;;;;;;;;5055114;28;20250;-90
2023/08/02 04:32:11;;;;;;;0.60;0.30;;;;;;;;;;5055173;28;20617;-89
2023/08/02 04:34:39;;;;;;;1.30;0.30;;;;;;;;;;5055083;28;20216;-91
2023/08/02 04:37:06;;;;;;;0.95;0.20;;;;;;;;;;5054661;28;20246;-91
2023/08/02 04:39:33;;;;;;;0.50;0.40;;;;;;;;;;5055206;28;20188;-90
2023/08/02 04:42:01;;;;;;;0.88;0.30;;;;;;;;;;5055976;28;20664;-89
2023/08/02 04:44:28;;;;;;;0.55;0.22;;;;;;;;;;5055037;28;20200;-90
2023/08/02 04:46:57;;;;;;;0.98;0.30;;;;;;;;;;5054976;28;20291;-90
2023/08/02 04:49:24;;;;;;;1.20;0.22;;;;;;;;;;5054087;28;20745;-90
2023/08/02 04:51:52;;;;;;;0.20;0.20;;;;;;;;;;5054711;28;20638;-90
2023/08/02 04:54:19;;;;;;;1.20;0.30;;;;;;;;;;5054457;28;20247;-90
2023/08/02 04:56:46;;;;;;;0.73;0.20;;;;;;;;;;5054647;28;20227;-90
2023/08/02 04:59:14;;;;;;;0.93;0.30;;;;;;;;;;5054624;28;20231;-92
2023/08/02 05:01:42;;;;;;;0.57;0.30;;;;;;;;;;5054116;28;20215;-90
2023/08/02 05:04:11;;;;;;;0.30;0.20;;;;;;;;;;5054333;28;20290;-90
2023/08/02 05:06:38;;;;;;;0.93;0.20;;;;;;;;;;5054530;28;20199;-90
2023/08/02 05:09:06;;;;;;;1.08;0.30;;;;;;;;;;5054435;28;20230;-91
2023/08/02 05:11:34;;;;;;;1.17;0.30;;;;;;;;;;5054046;28;20329;-90
2023/08/02 05:14:01;;;;;;;0.45;0.30;;;;;;;;;;5053969;28;20203;-91
2023/08/02 05:16:28;;;;;;;2.28;0.30;;;;;;;;;;5053954;28;20283;-91
2023/08/02 05:18:56;;;;;;;1.17;0.25;;;;;;;;;;5054202;28;20278;-91
2023/08/02 05:21:25;;;;;;;1.08;0.40;;;;;;;;;;5054439;28;20207;-91
2023/08/02 05:23:52;;;;;;;0.82;0.45;;;;;;;;;;5053847;28;20743;-91
2023/08/02 05:26:19;;;;;;;1.65;0.40;;;;;;;;;;5056764;28;20204;-90
2023/08/02 05:28:47;;;;;;;0.70;0.30;;;;;;;;;;5014554;28;20237;-90
2023/08/02 05:31:14;;;;;;;1.17;0.35;;;;;;;;;;5016718;28;20229;-90
2023/08/02 05:33:42;;;;;;;0.95;0.40;;;;;;;;;;5014941;28;20235;-90
2023/08/02 05:36:11;;;;;;;2.22;0.40;;;;;;;;;;5014275;28;20284;-91
2023/08/02 05:38:40;;;;;;;0.80;0.45;;;;;;;;;;5014644;28;20311;-90
2023/08/02 05:41:07;;;;;;;1.25;0.50;;;;;;;;;;5013930;28;20292;-90
2023/08/02 05:43:34;;;;;;;2.58;0.80;;;;;;;;;;5014068;28;20281;-90
2023/08/02 05:46:02;;;;;;;2.05;0.57;;;;;;;;;;5013599;28;20293;-90
2023/08/02 05:48:29;;;;;;;3.42;1.00;;;;;;;;;;5014212;28;20204;-89
2023/08/02 05:50:56;;;;;;;4.72;0.85;;;;;;;;;;5014718;28;20216;-90
2023/08/02 05:53:23;;;;;;;5.10;0.93;;;;;;;;;;5014152;28;20229;-90
2023/08/02 05:55:52;;;;;;;2.92;0.68;;;;;;;;;;5014287;28;20637;-89
2023/08/02 05:58:19;;;;;;;4.47;0.88;;;;;;;;;;5014121;28;20889;-91
2023/08/02 06:00:46;;;;;;;4.40;1.02;;;;;;;;;;5014294;28;20537;-90
2023/08/02 06:03:14;;;;;;;5.65;1.23;;;;;;;;;;5014979;28;20205;-91
2023/08/02 06:05:41;;;;;;;3.25;1.13;;;;;;;;;;5014775;28;20214;-90
2023/08/02 06:08:08;;;;;;;4.55;1.20;;;;;;;;;;5013945;28;20225;-89
2023/08/02 06:10:38;;;;;;;6.53;1.58;;;;;;;;;;5013642;28;20213;-89
2023/08/02 06:13:06;;;;;;;3.65;1.20;;;;;;;;;;5013855;28;20201;-89
2023/08/02 06:15:34;;;;;;;6.85;1.60;;;;;;;;;;5013308;28;20682;-90
2023/08/02 06:18:01;;;;;;;7.78;2.10;;;;;;;;;;5012582;28;20783;-90
2023/08/02 06:20:29;;;;;;;6.60;1.80;;;;;;;;;;5013697;28;20292;-91
2023/08/02 06:22:56;;;;;;;10.63;2.25;;;;;;;;;;5013576;28;20288;-90
2023/08/02 06:25:23;;;;;;;4.97;1.65;;;;;;;;;;5014927;28;20276;-89
2023/08/02 06:27:51;;;;;;;9.07;2.30;;;;;;;;;;5041951;28;20259;-89
2023/08/02 06:30:19;;;;;;;7.22;2.33;;;;;;;;;;5056862;28;20310;-91
2023/08/02 06:32:47;;;;;;;8.25;2.33;;;;;;;;;;5057662;28;20282;-90
2023/08/02 06:35:14;;;;;;;8.50;2.30;;;;;;;;;;5057319;28;20226;-89
2023/08/02 06:37:41;;;;;;;10.95;3.20;;;;;;;;;;5057167;28;20200;-90
2023/08/02 06:40:09;;;;;;;7.50;2.30;;;;;;;;;;5057496;28;20211;-89
2023/08/02 06:42:36;;;;;;;9.27;2.17;;;;;;;;;;5057112;28;20287;-90
2023/08/02 06:45:04;;;;;;;8.80;2.58;;;;;;;;;;5056363;28;20676;-90
2023/08/02 06:47:33;;;;;;;7.43;1.80;;;;;;;;;;5056970;28;20246;-89
2023/08/02 06:50:00;;;;;;;8.02;2.13;;;;;;;;;;5056558;28;20234;-90
2023/08/02 06:52:30;;;;;;;6.85;2.30;;;;;;;;;;5056970;28;20218;-89
2023/08/02 06:54:57;;;;;;;6.38;2.00;;;;;;;;;;5056919;28;20219;-89
2023/08/02 06:57:24;;;;;;;7.43;1.77;;;;;;;;;;5056782;28;20249;-89
2023/08/02 06:59:51;;;;;;;8.27;2.15;;;;;;;;;;5056380;28;20202;-89
2023/08/02 07:02:18;;;;;;;11.55;2.60;;;;;;;;;;5056823;28;20212;-88
2023/08/02 07:04:47;;;;;;;9.00;2.25;;;;;;;;;;5056438;28;20634;-90
2023/08/02 07:07:14;;;;;;;10.20;2.38;;;;;;;;;;5056022;28;20283;-88
2023/08/02 07:09:42;;;;;;;9.43;2.05;;;;;;;;;;5056201;28;20636;-87
2023/08/02 07:12:09;;;;;;;8.52;2.45;;;;;;;;;;5056283;28;20256;-89
2023/08/02 07:14:36;;;;;;;9.93;2.47;;;;;;;;;;5056124;28;20271;-88
2023/08/02 07:17:03;;;;;;;10.60;2.42;;;;;;;;;;5056040;28;20294;-88
2023/08/02 07:19:30;;;;;;;8.50;2.40;;;;;;;;;;5056332;28;20227;-88
2023/08/02 07:21:59;;;;;;;12.00;3.13;;;;;;;;;;5056278;28;20219;-88
2023/08/02 07:24:26;;;;;;;13.18;2.90;;;;;;;;;;5055933;28;20224;-89
2023/08/02 07:26:53;;;;;;;10.02;2.50;;;;;;;;;;5056134;28;20355;-89
2023/08/02 07:29:21;;;;;;;11.15;2.78;;;;;;;;;;5055921;28;20204;-89
2023/08/02 07:31:48;;;;;;;10.88;2.20;;;;;;;;;;5056160;28;20222;-89
2023/08/02 07:34:15;;;;;;;9.30;2.28;;;;;;;;;;5055738;28;20306;-89
2023/08/02 07:36:42;;;;;;;11.30;2.80;;;;;;;;;;5054768;28;20220;-89
2023/08/02 07:39:11;;;;;;;16.38;2.63;;;;;;;;;;5055921;28;20226;-88
2023/08/02 07:41:40;;;;;;;15.27;2.97;;;;;;;;;;5055127;28;20243;-89
2023/08/02 07:44:07;;;;;;;9.85;2.38;;;;;;;;;;5055727;28;20291;-87
2023/08/02 07:46:34;;;;;;;13.27;2.85;;;;;;;;;;5055489;28;20245;-88
2023/08/02 07:49:01;;;;;;;10.90;2.38;;;;;;;;;;5055266;28;20294;-88
2023/08/02 07:51:29;;;;;;;9.23;2.17;;;;;;;;;;5055621;28;20247;-89
2023/08/02 07:53:56;;;;;;;11.30;2.53;;;;;;;;;;5055557;28;20220;-88
2023/08/02 07:56:24;;;;;;;9.30;1.73;;;;;;;;;;5055182;28;20206;-88
2023/08/02 07:58:51;;;;;;;14.30;2.55;;;;;;;;;;5055618;28;20204;-89
2023/08/02 08:01:19;;;;;;;9.10;2.55;;;;;;;;;;5055305;28;20237;-89
2023/08/02 08:03:46;;;;;;;8.98;2.22;;;;;;;;;;5055150;28;20284;-89
2023/08/02 08:06:14;;;;;;;10.63;2.53;;;;;;;;;;5054983;28;20281;-89
2023/08/02 08:08:42;;;;;;;7.47;2.05;;;;;;;;;;5055002;28;20288;-89
2023/08/02 08:11:09;;;;;;;11.50;2.83;;;;;;;;;;5054375;28;20739;-88
2023/08/02 08:13:38;;;;;;;8.98;2.00;;;;;;;;;;5055134;28;20298;-88
2023/08/02 08:16:05;;;;;;;6.50;1.80;;;;;;;;;;5055007;28;20228;-90
2023/08/02 08:18:33;;;;;;;9.38;2.55;;;;;;;;;;5055186;28;20208;-87
2023/08/02 08:21:01;;;;;;;10.20;2.45;;;;;;;;;;5054774;28;20291;-87
2023/08/02 08:23:29;;;;;;;8.73;2.05;;;;;;;;;;5054688;28;20188;-88
2023/08/02 08:25:56;;;;;;;10.63;2.10;;;;;;;;;;5054194;28;20226;-88
2023/08/02 08:28:23;;;;;;;9.90;2.00;;;;;;;;;;5054463;28;20609;-89
2023/08/02 08:30:58;;;;;;;8.57;1.70;;;;;;;;;;5054522;28;20258;-88
2023/08/02 08:33:26;;;;;;;9.35;1.95;;;;;;;;;;5054636;28;20230;-89
2023/08/02 08:35:53;;;;;;;11.25;2.28;;;;;;;;;;5054511;28;20671;-87
2023/08/02 08:38:20;;;;;;;14.32;2.30;;;;;;;;;;5054203;28;20291;-88
2023/08/02 08:40:51;;;;;;;7.68;1.50;;;;;;;;;;5054994;28;20235;-88
2023/08/02 08:43:18;;;;;;;10.05;2.05;;;;;;;;;;5055122;28;20204;-88
2023/08/02 08:45:46;;;;;;;9.57;1.83;;;;;;;;;;5054218;28;20200;-88
2023/08/02 08:48:15;;;;;;;8.50;2.05;;;;;;;;;;5054282;28;20227;-87
2023/08/02 08:50:43;;;;;;;8.63;1.50;;;;;;;;;;5054369;28;20290;-88
2023/08/02 08:53:11;;;;;;;6.55;1.60;;;;;;;;;;5055106;28;20273;-88
2023/08/02 08:55:38;;;;;;;6.80;1.95;;;;;;;;;;5054731;28;20286;-90
2023/08/02 08:58:07;;;;;;;6.03;1.75;;;;;;;;;;5054862;28;20246;-87
2023/08/02 09:00:35;;;;;;;9.27;2.03;;;;;;;;;;5054380;28;20634;-87
2023/08/02 09:03:03;;;;;;;9.40;1.88;;;;;;;;;;5054538;28;20278;-90
2023/08/02 09:05:32;;;;;;;8.85;2.08;;;;;;;;;;5054129;28;20240;-88
2023/08/02 09:07:59;;;;;;;10.13;2.25;;;;;;;;;;5054990;28;20191;-88
2023/08/02 09:10:27;;;;;;;9.02;1.92;;;;;;;;;;5053953;28;20306;-86
2023/08/02 09:12:54;;;;;;;7.55;2.05;;;;;;;;;;5054551;28;20251;-88
2023/08/02 09:15:22;;;;;;;6.35;1.73;;;;;;;;;;5054350;28;20204;-89
2023/08/02 09:17:50;;;;;;;8.45;1.65;;;;;;;;;;5054396;28;20267;-87
2023/08/02 09:20:17;;;;;;;9.75;1.80;;;;;;;;;;5054655;28;20195;-87
2023/08/02 09:22:46;;;;;;;8.00;2.03;;;;;;;;;;5054017;28;20215;-89
2023/08/02 09:25:23;;;;;;;10.10;2.05;;;;;;;;;;5053986;28;20279;-88
2023/08/02 09:27:51;;;;;;;6.25;1.83;;;;;;;;;;5054026;28;20329;-88
2023/08/02 09:30:24;;;;;;;8.30;2.08;;;;;;;;;;5054292;28;20200;-89
2023/08/02 09:32:59;;;;;;;6.63;2.05;;;;;;;;;;5054154;28;20795;-88
2023/08/02 09:35:27;;;;;;;6.95;1.92;;;;;;;;;;5054568;28;20214;-90
2023/08/02 09:37:55;;;;;;;9.43;2.08;;;;;;;;;;5053852;28;20660;-88
2023/08/02 09:40:34;;;;;;;9.82;2.00;;;;;;;;;;5053921;28;20224;-90
2023/08/02 09:43:02;;;;;;;8.85;1.80;;;;;;;;;;5054843;28;20641;-88
2023/08/02 09:45:33;;;;;;;8.70;2.00;;;;;;;;;;5054021;28;20279;-88
2023/08/02 09:48:00;;;;;;;10.45;2.28;;;;;;;;;;5053976;28;20230;-88
2023/08/02 09:50:28;;;;;;;9.00;2.25;;;;;;;;;;5053962;28;20219;-89
2023/08/02 09:52:56;;;;;;;10.80;2.63;;;;;;;;;;5053494;28;20262;-88
2023/08/02 09:55:24;;;;;;;9.73;1.92;;;;;;;;;;5053796;28;20200;-87
2023/08/02 09:57:51;;;;;;;9.95;2.03;;;;;;;;;;5053515;28;20287;-87
2023/08/02 10:00:19;;;;;;;6.97;1.45;;;;;;;;;;5052857;28;20192;-87
2023/08/02 10:02:48;;;;;;;6.93;1.67;;;;;;;;;;5053576;28;20219;-89
2023/08/02 10:05:17;;;;;;;7.63;1.67;;;;;;;;;;5053591;28;20543;-88
2023/08/02 10:07:47;;;;;;;6.65;1.52;;;;;;;;;;5053812;28;20215;-88
2023/08/02 10:10:18;;;;;;;6.85;1.73;;;;;;;;;;5053327;28;20192;-87
2023/08/02 10:12:50;;;;;;;9.05;1.70;;;;;;;;;;5053327;28;20233;-87
2023/08/02 10:15:18;;;;;;;5.95;1.33;;;;;;;;;;5053216;28;20656;-86
2023/08/02 10:17:46;;;;;;;5.55;1.13;;;;;;;;;;5053550;28;20199;-87
2023/08/02 10:20:14;;;;;;;6.93;1.77;;;;;;;;;;5053682;28;20223;-88
2023/08/02 10:22:43;;;;;;;7.82;1.70;;;;;;;;;;5053192;28;20245;-87
2023/08/02 10:25:16;;;;;;;7.25;1.52;;;;;;;;;;5053902;28;20215;-88
2023/08/02 10:27:46;;;;;;;6.32;1.38;;;;;;;;;;5053647;28;20715;-88
2023/08/02 10:30:14;;;;;;;8.90;2.20;;;;;;;;;;5054135;28;20242;-88
2023/08/02 10:32:41;;;;;;;8.02;1.85;;;;;;;;;;5054089;28;20261;-89
2023/08/02 10:35:08;;;;;;;7.38;1.67;;;;;;;;;;5054885;28;20231;-88
2023/08/02 10:37:53;;;;;;;8.00;2.00;;;;;;;;;;5053662;28;20227;-90
2023/08/02 10:40:21;;;;;;;6.68;1.83;;;;;;;;;;5053474;28;20287;-89
2023/08/02 10:43:05;;;;;;;9.45;2.17;;;;;;;;;;5053384;28;20191;-87
2023/08/02 10:45:32;;;;;;;6.80;1.75;;;;;;;;;;5053131;28;20210;-87
2023/08/02 10:48:14;;;;;;;8.52;1.95;;;;;;;;;;5053071;28;20748;-88
2023/08/02 10:50:48;;;;;;;6.03;1.92;;;;;;;;;;5052452;28;20632;-87
2023/08/02 10:53:15;;;;;;;6.72;1.73;;;;;;;;;;5052934;28;20219;-88
2023/08/02 10:56:03;;;;;;;7.13;1.73;;;;;;;;;;5053332;28;20188;-86
2023/08/02 11:01:30;;;;;;;5.30;1.80;;;;;;;;;;5152952;27;20655;-88
2023/08/02 11:03:58;;;;;;;7.55;1.75;;;;;;;;;;5152998;27;20291;-88
2023/08/02 11:06:25;;;;;;;10.15;2.50;;;;;;;;;;5152243;27;20668;-88
2023/08/02 11:08:52;;;;;;;13.18;2.53;;;;;;;;;;5152629;27;20636;-88
2023/08/02 11:11:28;;;;;;;11.02;2.80;;;;;;;;;;5152392;27;20275;-87
2023/08/02 11:13:56;;;;;;;10.93;2.95;;;;;;;;;;5151836;27;20271;-87
2023/08/02 11:16:23;;;;;;;10.68;3.13;;;;;;;;;;5151898;27;20181;-88
2023/08/02 11:18:52;;;;;;;9.55;1.83;;;;;;;;;;5152499;27;20224;-88
2023/08/02 11:21:19;;;;;;;11.80;1.98;;;;;;;;;;5152409;27;20212;-87
2023/08/02 11:23:49;;;;;;;14.30;2.47;;;;;;;;;;5152175;27;20279;-88
2023/08/02 11:26:17;;;;;;;15.02;2.10;;;;;;;;;;5152251;27;20200;-88
2023/08/02 11:28:45;;;;;;;11.93;1.92;;;;;;;;;;5152265;27;20252;-87
2023/08/02 11:31:13;;;;;;;9.00;2.28;;;;;;;;;;5152250;27;20643;-87
2023/08/02 11:33:41;;;;;;;8.15;2.00;;;;;;;;;;5151300;27;20241;-87
2023/08/02 11:36:09;;;;;;;10.93;2.65;;;;;;;;;;5151522;27;20185;-87
2023/08/02 11:38:37;;;;;;;7.68;1.88;;;;;;;;;;5152409;27;20249;-87
2023/08/02 11:41:04;;;;;;;10.95;1.92;;;;;;;;;;5151429;27;20230;-86
2023/08/02 11:43:35;;;;;;;10.13;2.40;;;;;;;;;;5151696;27;20220;-87
2023/08/02 11:46:13;;;;;;;8.05;2.00;;;;;;;;;;5151510;27;20195;-88
2023/08/02 11:48:40;;;;;;;9.30;2.25;;;;;;;;;;5151176;27;20211;-87
2023/08/02 11:51:09;;;;;;;8.27;2.42;;;;;;;;;;5151073;27;20224;-87
2023/08/02 11:53:37;;;;;;;9.48;2.40;;;;;;;;;;5150744;27;20723;-88
2023/08/02 11:56:04;;;;;;;9.95;2.17;;;;;;;;;;5151278;27;21328;-88
2023/08/02 11:58:32;;;;;;;9.10;1.88;;;;;;;;;;5151052;27;20648;-88
2023/08/02 12:01:00;;;;;;;9.90;2.67;;;;;;;;;;5150443;27;20800;-87
2023/08/02 12:03:27;;;;;;;8.55;2.28;;;;;;;;;;5150525;27;20664;-88
2023/08/02 12:06:00;;;;;;;10.18;2.00;;;;;;;;;;5151045;27;20284;-86
2023/08/02 12:08:29;;;;;;;10.40;2.40;;;;;;;;;;5150470;27;20192;-87
2023/08/02 12:10:56;;;;;;;10.95;2.63;;;;;;;;;;5147616;27;20221;-86
2023/08/02 12:13:24;;;;;;;9.13;2.63;;;;;;;;;;5136664;27;20220;-86
2023/08/02 12:15:59;;;;;;;11.18;2.70;;;;;;;;;;5136533;27;20595;-85
2023/08/02 12:18:26;;;;;;;12.70;3.00;;;;;;;;;;5136481;27;20219;-86
2023/08/02 12:20:53;;;;;;;12.38;2.60;;;;;;;;;;5136098;27;20260;-87
2023/08/02 12:23:32;;;;;;;11.93;2.80;;;;;;;;;;5136850;27;20593;-85
2023/08/02 12:25:59;;;;;;;11.40;2.83;;;;;;;;;;5136647;27;20220;-87
2023/08/02 12:28:26;;;;;;;9.88;2.50;;;;;;;;;;5136363;27;20220;-86
2023/08/02 12:31:03;;;;;;;11.82;2.92;;;;;;;;;;5136047;27;20733;-87
2023/08/02 12:33:31;;;;;;;12.68;2.83;;;;;;;;;;5135747;27;20199;-86
2023/08/02 12:35:58;;;;;;;18.05;3.22;;;;;;;;;;5136332;27;20199;-88
2023/08/02 12:38:29;;;;;;;10.10;2.63;;;;;;;;;;5136350;27;20289;-87
2023/08/02 12:40:58;;;;;;;12.55;2.55;;;;;;;;;;5136106;27;20252;-87
2023/08/02 12:43:25;;;;;;;13.23;2.30;;;;;;;;;;5136254;27;20192;-87
2023/08/02 12:45:53;;;;;;;16.48;2.97;;;;;;;;;;5136245;27;20220;-87
2023/08/02 12:48:20;;;;;;;15.02;3.58;;;;;;;;;;5135975;27;20201;-86
2023/08/02 12:50:48;;;;;;;11.27;2.50;;;;;;;;;;5135909;27;20579;-86
2023/08/02 12:53:15;;;;;;;13.68;2.75;;;;;;;;;;5135393;27;20676;-87
2023/08/02 12:55:42;;;;;;;14.98;2.88;;;;;;;;;;5135984;27;20276;-87
2023/08/02 12:58:11;;;;;;;10.52;2.78;;;;;;;;;;5135416;27;20285;-85
2023/08/02 13:00:39;;;;;;;14.63;3.08;;;;;;;;;;5135133;27;20335;-87
2023/08/02 13:03:07;;;;;;;10.82;2.50;;;;;;;;;;5135237;27;20275;-85
2023/08/02 13:05:34;;;;;;;14.20;3.50;;;;;;;;;;5135584;27;20225;-87
2023/08/02 13:08:01;;;;;;;10.93;2.72;;;;;;;;;;5136037;27;20203;-87
2023/08/02 13:10:29;;;;;;;11.00;2.60;;;;;;;;;;5135437;27;20624;-85
2023/08/02 13:12:56;;;;;;;13.70;2.70;;;;;;;;;;5134884;27;20617;-86
2023/08/02 13:15:25;;;;;;;17.50;3.08;;;;;;;;;;5134930;27;20649;-88
2023/08/02 13:17:52;;;;;;;15.35;2.67;;;;;;;;;;5115436;27;20293;-86
2023/08/02 13:20:19;;;;;;;12.43;2.40;;;;;;;;;;5114791;28;20236;-87
2023/08/02 13:22:46;;;;;;;15.65;2.58;;;;;;;;;;5113905;28;20222;-87
2023/08/02 13:25:14;;;;;;;10.48;2.25;;;;;;;;;;5114976;28;20250;-87
2023/08/02 13:27:41;;;;;;;9.05;2.50;;;;;;;;;;5114866;28;20237;-87
2023/08/02 13:30:09;;;;;;;10.95;2.50;;;;;;;;;;5114187;28;20198;-87
2023/08/02 13:32:38;;;;;;;12.63;2.78;;;;;;;;;;5114871;28;20216;-87
2023/08/02 13:35:06;;;;;;;13.73;2.28;;;;;;;;;;5114710;28;20224;-87
2023/08/02 13:37:33;;;;;;;10.52;2.22;;;;;;;;;;5114573;28;20285;-87
2023/08/02 13:40:01;;;;;;;9.02;2.00;;;;;;;;;;5114523;28;20232;-87
2023/08/02 13:42:31;;;;;;;9.15;2.40;;;;;;;;;;5114470;28;20713;-87
2023/08/02 13:44:58;;;;;;;10.20;2.40;;;;;;;;;;5114811;28;20201;-85
2023/08/02 13:47:26;;;;;;;11.95;2.47;;;;;;;;;;5114191;28;20190;-86
2023/08/02 13:49:55;;;;;;;9.48;2.10;;;;;;;;;;5114625;28;20259;-87
2023/08/02 13:52:22;;;;;;;9.45;2.10;;;;;;;;;;5114444;28;20562;-87
2023/08/02 13:54:49;;;;;;;10.68;2.40;;;;;;;;;;5113653;28;20281;-85
2023/08/02 13:57:16;;;;;;;9.82;2.53;;;;;;;;;;5114161;28;20194;-86
2023/08/02 13:59:44;;;;;;;9.10;2.25;;;;;;;;;;5113806;28;20253;-86
2023/08/02 14:02:11;;;;;;;11.32;2.45;;;;;;;;;;5114014;28;20228;-88
2023/08/02 14:04:38;;;;;;;7.63;2.40;;;;;;;;;;5113735;28;20721;-86
2023/08/02 14:07:08;;;;;;;11.13;2.90;;;;;;;;;;5114015;28;20654;-87
2023/08/02 14:09:36;;;;;;;11.57;2.35;;;;;;;;;;5113822;28;20186;-86
2023/08/02 14:12:03;;;;;;;13.77;2.60;;;;;;;;;;5113548;28;20251;-86
2023/08/02 14:14:31;;;;;;;11.57;2.60;;;;;;;;;;5113545;28;20696;-87
2023/08/02 14:16:59;;;;;;;11.70;2.92;;;;;;;;;;5126555;27;20212;-87
2023/08/02 14:19:26;;;;;;;12.50;2.70;;;;;;;;;;5134610;27;20194;-87
2023/08/02 14:21:54;;;;;;;14.00;2.78;;;;;;;;;;5135815;27;20312;-86
2023/08/02 14:24:23;;;;;;;9.02;2.50;;;;;;;;;;5135214;27;20241;-87
2023/08/02 14:26:50;;;;;;;9.48;2.15;;;;;;;;;;5136276;27;20193;-88
2023/08/02 14:29:17;;;;;;;9.00;1.90;;;;;;;;;;5134924;27;20284;-87
2023/08/02 14:31:44;;;;;;;10.00;2.35;;;;;;;;;;5134559;27;20578;-87
2023/08/02 14:34:12;;;;;;;10.82;2.45;;;;;;;;;;5133680;27;20201;-85
2023/08/02 14:36:39;;;;;;;7.80;2.05;;;;;;;;;;5133623;27;20233;-87
2023/08/02 14:39:06;;;;;;;10.05;2.25;;;;;;;;;;5133832;27;20692;-86
2023/08/02 14:41:35;;;;;;;9.43;2.33;;;;;;;;;;5133465;27;20228;-84
2023/08/02 14:44:02;;;;;;;10.90;2.20;;;;;;;;;;5134236;27;20280;-87
2023/08/02 14:46:29;;;;;;;12.98;2.80;;;;;;;;;;5133904;27;20197;-86